createdAt,value
2023-05-17T00:00:10.748Z,4.77
2023-05-17T00:02:40.135Z,4.40
2023-05-17T00:05:09.031Z,4.63
2023-05-17T00:07:36.977Z,4.63
2023-05-17T00:10:05.463Z,4.40
2023-05-17T00:12:33.394Z,4.30
2023-05-17T00:15:01.463Z,4.40
2023-05-17T00:17:29.587Z,4.00
2023-05-17T00:19:59.159Z,4.87
2023-05-17T00:22:27.811Z,4.40
2023-05-17T00:24:55.893Z,4.33
2023-05-17T00:27:23.899Z,4.20
2023-05-17T00:29:52.043Z,4.00
2023-05-17T00:32:20.154Z,5.20
2023-05-17T00:34:48.121Z,4.10
2023-05-17T00:37:17.570Z,4.33
2023-05-17T00:39:45.593Z,4.17
2023-05-17T00:42:13.685Z,4.70
2023-05-17T00:44:41.739Z,4.77
2023-05-17T00:47:09.857Z,5.20
2023-05-17T00:49:37.911Z,3.63
2023-05-17T00:52:06.799Z,4.27
2023-05-17T00:54:36.534Z,4.60
2023-05-17T00:57:06.610Z,4.87
2023-05-17T00:59:35.425Z,4.60
2023-05-17T01:02:04.614Z,4.17
2023-05-17T01:04:33.217Z,5.03
2023-05-17T01:07:01.494Z,4.80
2023-05-17T01:09:29.593Z,4.97
2023-05-17T01:12:09.156Z,3.87
2023-05-17T01:14:48.429Z,4.40
2023-05-17T01:17:29.991Z,4.67
2023-05-17T01:20:06.489Z,4.03
2023-05-17T01:22:44.089Z,3.90
2023-05-17T01:25:20.489Z,4.00
2023-05-17T01:27:51.535Z,4.50
2023-05-17T01:30:21.746Z,3.50
2023-05-17T01:32:49.843Z,4.00
2023-05-17T01:35:17.867Z,4.40
2023-05-17T01:37:45.965Z,4.00
2023-05-17T01:40:14.340Z,4.33
2023-05-17T01:42:44.526Z,3.87
2023-05-17T01:45:21.669Z,3.53
2023-05-17T01:47:55.315Z,3.60
2023-05-17T01:50:25.808Z,3.10
2023-05-17T01:52:56.257Z,4.33
2023-05-17T01:55:29.859Z,3.27
2023-05-17T01:57:58.644Z,3.00
2023-05-17T02:00:30.091Z,3.03
2023-05-17T02:02:58.399Z,2.47
2023-05-17T02:05:26.665Z,3.13
2023-05-17T02:07:55.356Z,3.50
2023-05-17T02:10:23.608Z,2.80
2023-05-17T02:12:54.336Z,2.90
2023-05-17T02:15:22.374Z,3.00
2023-05-17T02:17:52.176Z,3.10
2023-05-17T02:20:20.981Z,3.40
2023-05-17T02:22:49.038Z,2.90
2023-05-17T02:25:17.248Z,3.07
2023-05-17T02:27:46.743Z,2.70
2023-05-17T02:30:18.131Z,3.07
2023-05-17T02:32:46.792Z,3.03
2023-05-17T02:35:16.198Z,2.73
2023-05-17T02:37:44.236Z,2.57
2023-05-17T02:40:13.204Z,2.43
2023-05-17T02:42:41.418Z,2.73
2023-05-17T02:45:12.918Z,3.20
2023-05-17T02:47:41.236Z,2.70
2023-05-17T02:50:10.480Z,2.83
2023-05-17T02:52:40.019Z,2.80
2023-05-17T02:55:08.563Z,2.70
2023-05-17T02:57:36.617Z,2.27
2023-05-17T03:00:05.994Z,2.43
2023-05-17T03:02:34.176Z,2.17
2023-05-17T03:05:02.258Z,2.53
2023-05-17T03:07:30.217Z,2.57
2023-05-17T03:09:59.717Z,2.27
2023-05-17T03:12:29.467Z,2.60
2023-05-17T03:14:57.711Z,3.10
2023-05-17T03:17:25.864Z,2.40
2023-05-17T03:19:54.221Z,2.47
2023-05-17T03:22:22.398Z,3.00
2023-05-17T03:24:50.388Z,2.23
2023-05-17T03:27:19.742Z,3.60
2023-05-17T03:29:47.746Z,2.20
2023-05-17T03:32:15.708Z,2.80
2023-05-17T03:34:43.677Z,2.20
2023-05-17T03:37:11.778Z,2.33
2023-05-17T03:39:39.713Z,1.97
2023-05-17T03:42:07.888Z,2.70
2023-05-17T03:44:37.273Z,2.17
2023-05-17T03:47:06.342Z,1.83
2023-05-17T03:49:34.777Z,2.37
2023-05-17T03:52:03.483Z,3.80
2023-05-17T03:54:31.576Z,2.10
2023-05-17T03:56:59.612Z,2.40
2023-05-17T03:59:27.696Z,1.93
2023-05-17T04:01:57.046Z,2.50
2023-05-17T04:04:25.255Z,2.33
2023-05-17T04:06:53.419Z,2.13
2023-05-17T04:09:21.392Z,2.27
2023-05-17T04:11:49.414Z,2.60
2023-05-17T04:14:18.470Z,2.30
2023-05-17T04:16:46.486Z,2.90
2023-05-17T04:19:16.058Z,2.27
2023-05-17T04:21:45.767Z,3.50
2023-05-17T04:24:13.777Z,2.87
2023-05-17T04:26:41.869Z,2.80
2023-05-17T04:29:09.958Z,2.30
2023-05-17T04:31:38.092Z,2.43
2023-05-17T04:34:06.328Z,3.03
2023-05-17T04:36:36.156Z,2.87
2023-05-17T04:39:04.948Z,2.50
2023-05-17T04:41:33.189Z,2.20
2023-05-17T04:44:01.369Z,3.03
2023-05-17T04:46:29.640Z,2.50
2023-05-17T04:51:41.317Z,2.43
2023-05-17T04:54:09.417Z,3.50
2023-05-17T04:56:37.735Z,2.70
2023-05-17T04:59:05.951Z,3.00
2023-05-17T05:01:35.331Z,2.90
2023-05-17T05:04:07.042Z,2.50
2023-05-17T05:06:35.347Z,3.07
2023-05-17T05:09:05.899Z,2.80
2023-05-17T05:11:34.111Z,2.80
2023-05-17T05:14:02.121Z,2.63
2023-05-17T05:16:32.540Z,2.70
2023-05-17T05:19:00.710Z,2.40
2023-05-17T05:21:28.844Z,2.70
2023-05-17T05:23:56.908Z,2.93
2023-05-17T05:26:26.329Z,3.80
2023-05-17T05:28:54.401Z,2.97
2023-05-17T05:31:22.614Z,3.03
2023-05-17T05:33:51.181Z,2.17
2023-05-17T05:36:19.239Z,2.80
2023-05-17T05:38:47.535Z,2.37
2023-05-17T05:41:15.573Z,2.37
2023-05-17T05:43:44.881Z,3.07
2023-05-17T05:46:12.891Z,2.40
2023-05-17T05:48:42.059Z,2.63
2023-05-17T05:51:10.877Z,2.47
2023-05-17T05:53:39.509Z,2.73
2023-05-17T05:56:07.993Z,2.17
2023-05-17T05:58:36.017Z,2.30
2023-05-17T06:01:07.097Z,2.20
2023-05-17T06:03:35.186Z,1.90
2023-05-17T06:06:03.281Z,2.33
2023-05-17T06:08:31.311Z,2.30
2023-05-17T06:10:59.363Z,2.60
2023-05-17T06:13:27.388Z,2.10
2023-05-17T06:15:55.335Z,1.87
2023-05-17T06:18:24.807Z,2.80
2023-05-17T06:20:52.884Z,1.70
2023-05-17T06:23:20.955Z,2.13
2023-05-17T06:25:48.917Z,2.60
2023-05-17T06:28:16.962Z,2.07
2023-05-17T06:30:45.044Z,1.67
2023-05-17T06:33:13.042Z,2.10
2023-05-17T06:35:54.710Z,2.07
2023-05-17T06:38:23.958Z,2.50
2023-05-17T06:40:53.833Z,1.90
2023-05-17T06:43:21.993Z,1.93
2023-05-17T06:45:50.065Z,2.10
2023-05-17T06:48:18.243Z,2.23
2023-05-17T06:50:47.667Z,2.17
2023-05-17T06:53:15.714Z,2.10
2023-05-17T06:55:43.741Z,2.50
2023-05-17T06:58:11.780Z,2.00
2023-05-17T07:00:39.882Z,2.00
2023-05-17T07:03:07.964Z,1.90
2023-05-17T07:05:36.462Z,2.17
2023-05-17T07:08:06.337Z,1.93
2023-05-17T07:10:34.375Z,2.20
2023-05-17T07:13:02.493Z,1.90
2023-05-17T07:15:30.618Z,1.90
2023-05-17T07:17:59.294Z,1.80
2023-05-17T07:20:27.511Z,1.70
2023-05-17T07:22:56.267Z,1.90
2023-05-17T07:25:25.762Z,2.80
2023-05-17T07:27:53.807Z,2.20
2023-05-17T07:30:22.049Z,2.30
2023-05-17T07:32:50.189Z,2.10
2023-05-17T07:35:19.716Z,2.03
2023-05-17T07:37:49.749Z,1.90
2023-05-17T07:40:20.825Z,2.20
2023-05-17T07:42:50.213Z,2.33
2023-05-17T07:45:20.342Z,2.20
2023-05-17T07:47:48.532Z,2.00
2023-05-17T07:50:16.684Z,2.20
2023-05-17T07:52:48.311Z,1.80
2023-05-17T07:55:17.182Z,2.80
2023-05-17T07:57:48.240Z,1.90
2023-05-17T08:00:21.798Z,1.73
2023-05-17T08:02:52.857Z,2.57
2023-05-17T08:05:21.129Z,1.90
2023-05-17T08:07:49.720Z,2.10
2023-05-17T08:10:17.818Z,2.80
2023-05-17T08:12:46.105Z,2.80
2023-05-17T08:15:14.645Z,2.40
2023-05-17T08:17:44.128Z,2.10
2023-05-17T08:20:13.232Z,2.13
2023-05-17T08:22:41.850Z,2.17
2023-05-17T08:25:10.758Z,2.30
2023-05-17T08:27:39.638Z,2.70
2023-05-17T08:30:11.845Z,1.80
2023-05-17T08:32:44.979Z,2.60
2023-05-17T08:35:16.103Z,2.20
2023-05-17T08:37:44.176Z,2.10
2023-05-17T08:40:12.674Z,2.33
2023-05-17T08:42:40.905Z,2.50
2023-05-17T08:45:11.880Z,2.13
2023-05-17T08:47:41.081Z,2.60
2023-05-17T08:50:12.945Z,2.30
2023-05-17T08:52:41.978Z,1.80
2023-05-17T08:55:11.196Z,2.30
2023-05-17T08:57:40.452Z,2.17
2023-05-17T09:00:12.345Z,2.60
2023-05-17T09:02:40.952Z,2.50
2023-05-17T09:05:11.363Z,2.03
2023-05-17T09:07:39.578Z,2.47
2023-05-17T09:10:08.691Z,2.40
2023-05-17T09:12:36.883Z,2.53
2023-05-17T09:15:16.067Z,2.40
2023-05-17T09:17:44.551Z,2.20
2023-05-17T09:20:14.299Z,2.53
2023-05-17T09:22:42.424Z,2.23
2023-05-17T09:25:10.856Z,2.70
2023-05-17T09:27:38.947Z,2.57
2023-05-17T09:30:12.183Z,2.23
2023-05-17T09:32:45.927Z,2.93
2023-05-17T09:35:15.682Z,2.70
2023-05-17T09:37:45.198Z,2.83
2023-05-17T09:40:24.383Z,2.63
2023-05-17T09:42:52.662Z,2.63
2023-05-17T09:45:24.629Z,1.70
2023-05-17T09:47:53.533Z,2.47
2023-05-17T09:50:25.965Z,3.03
2023-05-17T09:52:54.451Z,2.23
2023-05-17T09:55:30.188Z,2.50
2023-05-17T09:58:04.300Z,2.73
2023-05-17T10:00:33.754Z,3.33
2023-05-17T10:03:04.295Z,2.90
2023-05-17T10:05:34.213Z,2.30
2023-05-17T10:08:03.172Z,2.13
2023-05-17T10:10:32.673Z,1.90
2023-05-17T10:13:02.204Z,1.83
2023-05-17T10:15:30.698Z,1.90
2023-05-17T10:18:00.092Z,2.83
2023-05-17T10:20:29.133Z,2.30
2023-05-17T10:22:59.235Z,2.17
2023-05-17T10:25:28.127Z,2.30
2023-05-17T10:27:57.132Z,2.03
2023-05-17T10:30:26.639Z,2.27
2023-05-17T10:32:55.442Z,1.90
2023-05-17T10:35:25.357Z,1.53
2023-05-17T10:37:53.419Z,2.63
2023-05-17T10:40:25.797Z,1.87
2023-05-17T10:42:56.014Z,1.80
2023-05-17T10:45:27.225Z,1.67
2023-05-17T10:47:57.188Z,1.70
2023-05-17T10:50:28.949Z,1.80
2023-05-17T10:53:00.494Z,1.77
2023-05-17T10:55:40.741Z,1.50
2023-05-17T10:58:17.271Z,1.90
2023-05-17T11:00:48.538Z,2.07
2023-05-17T11:03:19.436Z,1.80
2023-05-17T11:06:23.625Z,1.67
2023-05-17T11:09:15.126Z,1.50
2023-05-17T11:12:06.204Z,1.60
2023-05-17T11:14:51.139Z,1.83
2023-05-17T11:17:22.815Z,1.70
2023-05-17T11:19:58.107Z,1.53
2023-05-17T11:22:27.516Z,1.80
2023-05-17T11:24:58.452Z,1.40
2023-05-17T11:27:28.827Z,1.20
2023-05-17T11:29:58.402Z,1.60
2023-05-17T11:32:29.185Z,2.30
2023-05-17T11:35:00.777Z,2.40
2023-05-17T11:37:30.035Z,1.70
2023-05-17T11:40:06.290Z,1.87
2023-05-17T11:42:37.271Z,2.13
2023-05-17T11:45:06.250Z,2.07
2023-05-17T11:47:34.444Z,2.23
2023-05-17T11:50:04.233Z,1.90
2023-05-17T11:52:32.868Z,1.90
2023-05-17T11:55:02.553Z,1.73
2023-05-17T11:57:38.741Z,1.60
2023-05-17T12:00:08.716Z,1.47
2023-05-17T12:02:36.659Z,1.07
2023-05-17T12:05:04.754Z,1.83
2023-05-17T12:07:32.812Z,1.33
2023-05-17T12:10:00.838Z,2.30
2023-05-17T12:12:28.918Z,1.73
2023-05-17T12:15:01.202Z,1.63
2023-05-17T12:17:36.889Z,1.80
2023-05-17T12:20:09.144Z,2.20
2023-05-17T12:22:52.971Z,2.20
2023-05-17T12:25:22.483Z,1.70
2023-05-17T12:27:51.410Z,2.13
2023-05-17T12:30:21.171Z,2.30
2023-05-17T12:32:49.406Z,1.90
2023-05-17T12:35:17.624Z,1.90
2023-05-17T12:37:46.033Z,2.37
2023-05-17T12:40:14.366Z,1.87
2023-05-17T12:42:43.841Z,2.40
2023-05-17T12:45:13.638Z,2.10
2023-05-17T12:47:43.987Z,1.70
2023-05-17T12:50:12.820Z,1.80
2023-05-17T12:52:42.148Z,2.03
2023-05-17T12:55:14.332Z,2.00
2023-05-17T12:57:50.390Z,1.97
2023-05-17T13:00:19.626Z,1.60
2023-05-17T13:02:49.329Z,1.80
2023-05-17T13:05:21.482Z,1.63
2023-05-17T13:07:49.722Z,1.83
2023-05-17T13:10:25.986Z,1.77
2023-05-17T13:13:01.059Z,1.70
2023-05-17T13:15:32.644Z,1.70
2023-05-17T13:18:13.512Z,1.50
2023-05-17T13:20:41.564Z,2.33
2023-05-17T13:23:09.573Z,1.60
2023-05-17T13:25:37.627Z,1.63
2023-05-17T13:28:05.906Z,2.40
2023-05-17T13:30:33.945Z,1.90
2023-05-17T13:33:03.376Z,2.10
2023-05-17T13:35:31.386Z,2.17
2023-05-17T13:37:59.362Z,2.33
2023-05-17T13:40:27.379Z,2.07
2023-05-17T13:42:55.492Z,2.13
2023-05-17T13:45:25.806Z,1.57
2023-05-17T13:47:53.863Z,1.90
2023-05-17T13:50:24.006Z,1.93
2023-05-17T13:52:52.178Z,2.33
2023-05-17T13:55:20.148Z,2.10
2023-05-17T13:57:48.171Z,2.07
2023-05-17T14:00:17.202Z,2.20
2023-05-17T14:02:45.271Z,2.70
2023-05-17T14:05:15.413Z,2.33
2023-05-17T14:07:45.970Z,2.07
2023-05-17T14:10:13.971Z,2.20
2023-05-17T14:12:42.341Z,2.10
2023-05-17T14:15:11.810Z,2.00
2023-05-17T14:17:39.917Z,2.57
2023-05-17T14:20:09.823Z,2.20
2023-05-17T14:22:37.976Z,2.10
2023-05-17T14:25:08.584Z,2.27
2023-05-17T14:27:36.551Z,2.17
2023-05-17T14:30:05.018Z,1.80
2023-05-17T14:32:33.035Z,2.00
2023-05-17T14:35:01.028Z,2.20
2023-05-17T14:37:29.020Z,2.03
2023-05-17T14:40:05.811Z,2.27
2023-05-17T14:42:36.041Z,2.13
2023-05-17T14:45:04.063Z,1.70
2023-05-17T14:47:32.968Z,1.87
2023-05-17T14:50:02.557Z,2.10
2023-05-17T14:52:30.598Z,1.70
2023-05-17T14:54:59.213Z,1.73
2023-05-17T14:57:27.230Z,1.67
2023-05-17T14:59:56.529Z,1.80
2023-05-17T15:02:24.507Z,2.00
2023-05-17T15:04:52.629Z,2.00
2023-05-17T15:07:20.823Z,1.77
2023-05-17T15:09:49.017Z,2.20
2023-05-17T15:12:17.018Z,2.10
2023-05-17T15:14:46.483Z,2.20
2023-05-17T15:17:15.821Z,2.30
2023-05-17T15:19:44.065Z,2.73
2023-05-17T15:22:12.236Z,2.70
2023-05-17T15:24:40.222Z,3.43
2023-05-17T15:27:08.252Z,2.17
2023-05-17T15:29:38.818Z,2.50
2023-05-17T15:32:07.071Z,2.60
2023-05-17T15:34:36.646Z,1.80
2023-05-17T15:37:04.867Z,2.47
2023-05-17T15:39:32.836Z,2.13
2023-05-17T15:42:00.964Z,2.37
2023-05-17T15:44:28.943Z,1.93
2023-05-17T15:46:56.894Z,2.40
2023-05-17T15:49:25.566Z,2.90
2023-05-17T15:51:54.910Z,2.90
2023-05-17T15:54:22.906Z,2.90
2023-05-17T15:56:51.081Z,2.97
2023-05-17T15:59:19.014Z,2.23
2023-05-17T16:01:47.014Z,1.90
2023-05-17T16:04:14.976Z,2.13
2023-05-17T16:06:43.129Z,2.10
2023-05-17T16:09:14.313Z,2.30
2023-05-17T16:11:42.505Z,2.07
2023-05-17T16:14:10.953Z,1.70
2023-05-17T16:16:38.888Z,2.10
2023-05-17T16:19:06.991Z,2.60
2023-05-17T16:21:35.551Z,3.47
2023-05-17T16:24:06.565Z,2.90
2023-05-17T16:26:38.387Z,3.20
2023-05-17T16:29:06.388Z,2.63
2023-05-17T16:31:34.331Z,2.40
2023-05-17T16:34:02.328Z,2.20
2023-05-17T16:36:30.330Z,2.50
2023-05-17T16:38:58.324Z,2.53
2023-05-17T16:41:26.829Z,2.60
2023-05-17T16:43:56.228Z,2.60
2023-05-17T16:46:24.829Z,2.70
2023-05-17T16:48:55.366Z,2.37
2023-05-17T16:51:24.259Z,2.07
2023-05-17T16:53:52.274Z,1.97
2023-05-17T16:56:20.273Z,2.40
2023-05-17T16:58:48.215Z,2.80
2023-05-17T17:01:17.569Z,2.50
2023-05-17T17:03:45.659Z,2.53
2023-05-17T17:06:13.798Z,2.60
2023-05-17T17:08:43.654Z,2.50
2023-05-17T17:11:11.562Z,2.17
2023-05-17T17:13:39.624Z,2.73
2023-05-17T17:16:07.808Z,2.50
2023-05-17T17:18:38.303Z,2.40
2023-05-17T17:21:07.844Z,2.67
2023-05-17T17:23:36.623Z,2.30
2023-05-17T17:26:04.615Z,2.40
2023-05-17T17:28:32.614Z,2.40
2023-05-17T17:31:00.611Z,2.63
2023-05-17T17:33:28.589Z,2.10
2023-05-17T17:35:57.926Z,2.70
2023-05-17T17:38:26.090Z,2.40
2023-05-17T17:40:54.052Z,3.20
2023-05-17T17:43:22.038Z,2.77
2023-05-17T17:45:49.996Z,2.43
2023-05-17T17:48:17.986Z,2.70
2023-05-17T17:50:45.945Z,2.60
2023-05-17T17:53:15.558Z,2.73
2023-05-17T17:55:43.640Z,2.53
2023-05-17T17:58:11.623Z,2.50
2023-05-17T18:00:39.883Z,3.10
2023-05-17T18:03:07.865Z,3.10
2023-05-17T18:05:35.970Z,3.83
2023-05-17T18:08:03.924Z,3.73
2023-05-17T18:10:36.254Z,3.37
2023-05-17T18:13:04.734Z,3.73
2023-05-17T18:15:32.818Z,2.67
2023-05-17T18:18:01.412Z,2.90
2023-05-17T18:20:29.607Z,2.67
2023-05-17T18:22:57.693Z,2.97
2023-05-17T18:25:25.712Z,3.33
2023-05-17T18:27:55.026Z,3.00
2023-05-17T18:30:24.993Z,2.80
2023-05-17T18:32:52.994Z,3.03
2023-05-17T18:35:20.988Z,3.13
2023-05-17T18:37:48.949Z,3.37
2023-05-17T18:40:17.072Z,3.60
2023-05-17T18:42:45.022Z,2.97
2023-05-17T18:45:17.389Z,3.13
2023-05-17T18:47:45.434Z,3.00
2023-05-17T18:50:13.408Z,3.50
2023-05-17T18:52:41.343Z,3.80
2023-05-17T18:55:11.987Z,3.07
2023-05-17T18:57:39.952Z,3.27
2023-05-17T19:00:09.365Z,3.23
2023-05-17T19:02:39.191Z,2.67
2023-05-17T19:05:07.900Z,3.17
2023-05-17T19:07:35.996Z,3.20
2023-05-17T19:10:04.313Z,2.87
2023-05-17T19:12:32.292Z,3.53
2023-05-17T19:15:00.198Z,3.13
2023-05-17T19:17:28.265Z,3.27
2023-05-17T19:19:57.668Z,3.10
2023-05-17T19:22:25.658Z,2.70
2023-05-17T19:24:53.619Z,2.60
2023-05-17T19:27:21.589Z,2.63
2023-05-17T19:29:49.514Z,2.70
2023-05-17T19:32:17.468Z,2.60
2023-05-17T19:34:45.420Z,2.63
2023-05-17T19:37:14.753Z,2.40
2023-05-17T19:39:42.754Z,2.37
2023-05-17T19:42:10.797Z,2.50
2023-05-17T19:44:38.801Z,2.20
2023-05-17T19:47:07.387Z,2.50
2023-05-17T19:49:35.496Z,2.20
2023-05-17T19:52:03.459Z,2.37
2023-05-17T19:54:32.807Z,2.10
2023-05-17T19:57:02.140Z,1.63
2023-05-17T19:59:36.220Z,2.50
2023-05-17T20:02:04.208Z,2.23
2023-05-17T20:04:32.182Z,2.27
2023-05-17T20:07:00.163Z,2.00
2023-05-17T20:09:30.244Z,2.60
2023-05-17T20:11:59.841Z,1.80
2023-05-17T20:14:28.430Z,2.50
2023-05-17T20:16:56.468Z,2.27
2023-05-17T20:19:24.801Z,2.47
2023-05-17T20:21:52.896Z,2.70
2023-05-17T20:24:23.274Z,2.27
2023-05-17T20:26:51.229Z,2.50
2023-05-17T20:29:20.550Z,2.67
2023-05-17T20:31:50.141Z,2.63
2023-05-17T20:34:18.189Z,3.13
2023-05-17T20:36:46.641Z,2.60
2023-05-17T20:39:15.255Z,2.70
2023-05-17T20:41:43.208Z,2.50
2023-05-17T20:44:12.589Z,2.80
2023-05-17T20:46:41.919Z,2.60
2023-05-17T20:49:09.919Z,2.70
2023-05-17T20:51:38.034Z,2.60
2023-05-17T20:54:06.342Z,3.40
2023-05-17T20:56:35.015Z,3.13
2023-05-17T20:59:03.122Z,3.37
2023-05-17T21:01:31.275Z,3.73
2023-05-17T21:04:00.749Z,3.37
2023-05-17T21:06:31.692Z,3.33
2023-05-17T21:09:02.333Z,3.90
2023-05-17T21:11:30.699Z,3.57
2023-05-17T21:13:59.770Z,3.07
2023-05-17T21:16:27.974Z,3.70
2023-05-17T21:18:56.151Z,3.50
2023-05-17T21:21:25.501Z,3.93
2023-05-17T21:23:53.476Z,3.00
2023-05-17T21:26:21.685Z,3.27
2023-05-17T21:28:49.701Z,3.13
2023-05-17T21:31:17.763Z,3.07
2023-05-17T21:33:45.830Z,3.43
2023-05-17T21:36:13.842Z,3.03
2023-05-17T21:38:43.162Z,2.63
2023-05-17T21:41:11.361Z,2.27
2023-05-17T21:43:39.489Z,2.57
2023-05-17T21:46:07.685Z,2.60
2023-05-17T21:48:35.915Z,3.00
2023-05-17T21:51:04.087Z,2.90
2023-05-17T21:53:32.215Z,2.77
2023-05-17T21:56:02.964Z,2.73
2023-05-17T21:58:31.979Z,2.80
2023-05-17T22:01:00.344Z,2.60
2023-05-17T22:03:28.612Z,2.30
2023-05-17T22:05:56.756Z,2.33
2023-05-17T22:08:24.771Z,2.60
2023-05-17T22:10:54.301Z,3.07
2023-05-17T22:13:26.259Z,2.40
2023-05-17T22:15:57.459Z,2.70
2023-05-17T22:18:27.058Z,2.57
2023-05-17T22:20:58.992Z,2.50
2023-05-17T22:23:27.128Z,2.87
2023-05-17T22:25:57.053Z,2.37
2023-05-17T22:28:26.587Z,2.50
2023-05-17T22:30:55.102Z,2.20
2023-05-17T22:33:23.538Z,2.80
2023-05-17T22:35:53.692Z,2.63
2023-05-17T22:38:23.269Z,2.17
2023-05-17T22:40:51.336Z,2.43
2023-05-17T22:43:21.358Z,2.87
2023-05-17T22:45:51.038Z,2.57
2023-05-17T22:48:20.642Z,2.53
2023-05-17T22:50:48.626Z,2.77
2023-05-17T22:53:18.389Z,2.83
2023-05-17T22:55:48.787Z,2.03
2023-05-17T22:58:17.004Z,2.50
2023-05-17T23:00:45.218Z,2.33
2023-05-17T23:03:14.606Z,2.90
2023-05-17T23:05:43.277Z,2.70
2023-05-17T23:08:12.937Z,2.40
2023-05-17T23:10:40.961Z,2.53
2023-05-17T23:13:09.032Z,2.47
2023-05-17T23:15:37.229Z,2.40
2023-05-17T23:18:05.637Z,2.53
2023-05-17T23:20:35.881Z,2.20
2023-05-17T23:23:04.088Z,2.47
2023-05-17T23:25:32.305Z,2.83
2023-05-17T23:28:00.340Z,2.80
2023-05-17T23:30:29.595Z,2.30
2023-05-17T23:32:57.681Z,2.27
2023-05-17T23:35:25.858Z,2.40
2023-05-17T23:37:55.375Z,2.20
2023-05-17T23:40:23.372Z,2.50
2023-05-17T23:42:51.295Z,2.70
2023-05-17T23:45:19.335Z,2.60
2023-05-17T23:47:47.536Z,2.80
2023-05-17T23:50:15.761Z,3.17
2023-05-17T23:52:43.959Z,2.03
2023-05-17T23:55:13.339Z,2.90
2023-05-17T23:57:42.429Z,2.10
